• Join FlightAware (Why Join?)
  • Login
  • US Flag 
06:02AM EDT


 

Airport Tracker/Info


-or-


 

Live Flight TrackerFlight Track Log ✈ MAL8056 ✈ 06-May-2013 ✈ CYYZ - CYSB

Flight Track Log - Related Links

Times and Time Zones

All times are in EDT time to prevent confusion due to time zone crossing. See the MAL8056 flight status page for this flight to view local times or setup timezone preferences in your user account.

Time Position Orientation Groundspeed Altitude Reporting Facility
EDT Latitude Longitude Course Direction KTS MPH feet Rate Location/Type
08:12AM 43.6833 -79.6167 North 10 12 500  Level Toronto Center
08:13AM 43.6667 -79.6333 216° Southwest 90 104 1,000 600 Climbing Toronto Center
08:14AM 43.7000 -79.6500 340° North 110 127 1,700 720 Climbing Toronto Center
08:15AM 43.7167 -79.6833 305° West 120 138 2,500 720 Climbing Toronto Center
08:16AM 43.7500 -79.7000 340° North 120 138 3,200 660 Climbing Toronto Center
08:18AM 43.8048 -79.7199 340° North  Level Estimated
08:18AM 43.8167 -79.7333 340° North 130 150 4,600  Level Toronto Center
08:19AM 43.9686 -79.6833 North  Level FlightAware Approximate
08:19AM 43.8667 -79.7333 360° North 130 150 5,000  Level Toronto Center
08:20AM 43.9000 -79.7333 360° North 160 184 5,000 180 Level Toronto Center
08:21AM 43.9500 -79.7333 360° North 160 184 5,400 360 Climbing Toronto Center
08:22AM 43.9833 -79.7333 360° North 150 173 5,800 360 Climbing Toronto Center
08:23AM 44.0333 -79.7333 360° North 150 173 6,200 420 Climbing Toronto Center
08:24AM 44.0667 -79.7333 360° North 150 173 6,700 420 Climbing Toronto Center
08:26AM 44.1216 -79.7519 344° North  Level FlightAware Approximate
08:26AM 44.1500 -79.7500 344° North 150 173 7,600  Level Toronto Center
08:28AM 44.2043 -79.7719 344° North  Level FlightAware Approximate
08:28AM 44.2333 -79.8000 344° North 160 184 8,000  Level Toronto Center
08:30AM 44.2877 -79.8213 344° North  Level FlightAware Approximate
08:30AM 44.3333 -79.8167 344° North 170 196 8,000  Level Toronto Center
08:31AM 44.3667 -79.8500 324° Northwest 170 196 8,000  Level Toronto Center
08:32AM 44.4167 -79.8667 347° North 170 196 8,000  Level Toronto Center
08:33AM 44.4667 -79.8667 360° North 170 196 8,000  Level Toronto Center
08:35AM 44.5208 -79.8895 343° North  Level FlightAware Approximate
08:35AM 44.5500 -79.9167 343° North 170 196 8,000  Level Toronto Center
08:36AM 44.6000 -79.9333 347° North 170 196 8,000  Level Toronto Center
08:37AM 44.6333 -79.9333 360° North 170 196 8,000  Level Toronto Center
08:38AM 44.6833 -79.9667 335° Northwest 160 184 8,000  Level Toronto Center
08:40AM 44.7375 -79.9891 344° North  Level FlightAware Approximate
08:41AM 44.8167 -80.0333 344° North 160 184 8,000  Level Toronto Center
08:43AM 44.8709 -80.0556 344° North  Level Estimated
08:43AM 44.9000 -80.0500 344° North 170 196 8,000  Level Toronto Center
08:44AM 44.9500 -80.0833 335° Northwest 170 196 8,000  Level Toronto Center
08:45AM 45.0000 -80.1000 347° North 170 196 8,000  Level Toronto Center
08:46AM 45.0333 -80.1333 325° Northwest 170 196 8,000  Level Toronto Center
08:47AM 45.0331 -80.1121 344° North  Level FlightAware Approximate
08:47AM 45.0833 -80.1333 360° North 170 196 8,000  Level Toronto Center
08:48AM 45.1333 -80.1500 347° North 170 196 8,000  Level Toronto Center
08:50AM 45.1875 -80.1729 343° North  Level Estimated
08:50AM 45.2167 -80.1833 343° North 170 196 8,000  Level Toronto Center
08:51AM 45.2667 -80.2000 347° North 170 196 8,000  Level Toronto Center
08:52AM 45.3167 -80.2333 335° Northwest 170 196 8,000  Level Toronto Center
08:53AM 45.3500 -80.2500 341° North 170 196 8,000  Level Toronto Center
08:54AM 45.4000 -80.2500 360° North 170 196 8,000  Level Toronto Center
08:55AM 45.4333 -80.2667 341° North 170 196 8,000  Level Toronto Center
08:57AM 45.4872 -80.2909 342° North  Level FlightAware Approximate
08:58AM 45.5667 -80.3167 342° North 170 196 8,000  Level Toronto Center
08:59AM 45.6167 -80.3500 335° Northwest 170 196 8,000  Level Toronto Center
09:00AM 45.6667 -80.3667 347° North 170 196 8,000  Level Toronto Center
09:01AM 45.7167 -80.4000 335° Northwest 170 196 8,000  Level Toronto Center
09:02AM 45.7500 -80.4000 360° North 170 196 8,000  Level Toronto Center
09:03AM 45.8000 -80.4167 347° North 170 196 8,000  Level Toronto Center
09:04AM 45.7810 -80.4241 342° North  Level FlightAware Approximate
09:04AM 45.8500 -80.4500 335° Northwest 170 196 8,000  Level Toronto Center
09:05AM 45.8833 -80.4667 341° North 170 196 8,000  Level Toronto Center
09:06AM 45.9333 -80.5000 335° Northwest 170 196 8,000 -120 Level Toronto Center
09:08AM 45.9874 -80.5236 343° North  Level FlightAware Approximate
09:08AM 46.0333 -80.5167 343° North 170 196 7,800  Level Toronto Center
09:09AM 46.0667 -80.5500 325° Northwest 180 207 7,300 -600 Descending Toronto Center
09:11AM 46.1201 -80.5767 341° North  Level FlightAware Approximate
09:11AM 46.1667 -80.6000 341° North 180 207 6,100  Level Toronto Center
09:12AM 46.2167 -80.6000 360° North 180 207 5,500 -600 Descending Toronto Center
09:13AM 46.2667 -80.6167 347° North 180 207 4,900 -540 Descending Toronto Center
09:14AM 46.3167 -80.6500 335° Northwest 170 196 4,500 -480 Descending Toronto Center
09:15AM 46.3667 -80.6667 347° North 170 196 4,000 -420 Descending Toronto Center
09:17AM 46.4194 -80.6978 345° North  Level FlightAware Approximate
09:17AM 46.4500 -80.7167 345° North 170 196 3,300  Level Toronto Center
09:18AM 46.4833 -80.7500 325° Northwest 170 196 2,900 -360 Descending Toronto Center
09:19AM 46.5333 -80.7667 347° North 170 196 2,600 -420 Descending Toronto Center
09:21AM 46.5893 -80.7779 352° North  Level FlightAware Approximate
09:21AM 46.6000 -80.8000 352° North 130 150 1,800  Level Toronto Center